Flight Track Log - Related Links

Times and Time Zones

All times are in EDT time to prevent confusion due to time zone crossing. See the AAL2007 flight status page for this flight to view local times or setup timezone preferences in your user account.

Time Position Orientation Groundspeed Altitude Reporting Facility
EDT Latitude Longitude Course Direction KTS MPH feet Rate Location/Type
Tue 07:32:14 PM 41.9333 -87.9167 207° Southwest 181 208 1,700  Level Chicago TRACON
Tue 07:33:14 PM 41.8833 -87.9333 194° South 222 255 4,000 2,250 Climbing Chicago TRACON
Tue 07:34:00 PM 41.7009 -88.1876 201° Southwest  Level Estimated
Tue 07:34:14 PM 41.8167 -87.9667 200° South 278 320 6,200  Level Chicago TRACON
Tue 07:34:30 PM 41.7981 -87.9678 183° South 257 296 6,500 2,615 Climbing Chicago Center
Tue 07:35:00 PM 41.6072 -88.2807 197° South  Level Estimated
Tue 07:35:32 PM 41.7208 -88.0086 202° Southwest 299 344 9,600  Level Chicago Center
Tue 07:36:00 PM 41.5134 -88.3736 194° South  Level Estimated
Tue 07:36:34 PM 41.6250 -88.0617 202° Southwest 311 358 12,600  Level Chicago Center
Tue 07:37:00 PM 41.4195 -88.4661 207° Southwest  Level Estimated
Tue 07:37:36 PM 41.5358 -88.1114 203° Southwest 346 398 14,300  Level Chicago Center
Tue 07:38:38 PM 41.4414 -88.1611 202° Southwest 375 432 16,900 2,565 Climbing Chicago Center
Tue 07:39:40 PM 41.3244 -88.2172 200° South 385 443 19,600 2,256 Climbing Chicago Center
Tue 07:40:43 PM 41.2211 -88.2631 198° South 394 453 21,600 1,776 Climbing Chicago Center
Tue 07:41:45 PM 41.1156 -88.3111 199° South 401 461 23,300 1,548 Climbing Chicago Center
Tue 07:42:47 PM 41.0067 -88.3611 199° South 411 473 24,800 1,403 Climbing Chicago Center
Tue 07:43:49 PM 40.9078 -88.4442 212° Southwest 425 489 26,200 1,452 Climbing Chicago Center
Tue 07:44:51 PM 40.7969 -88.5597 218° Southwest 425 489 27,800 1,452 Climbing Chicago Center
Tue 07:45:53 PM 40.7006 -88.6572 217° Southwest 435 501 29,200 1,355 Climbing Chicago Center
Tue 07:46:55 PM 40.6050 -88.7564 218° Southwest 438 504 30,600 1,355 Climbing Chicago Center
Tue 07:47:57 PM 40.5044 -88.8586 218° Southwest 435 501 32,000 677 Climbing Chicago Center
Tue 07:48:59 PM 40.4097 -88.9533 217° Southwest 428 493 32,000  Level Chicago Center
Tue 07:50:01 PM 40.3169 -89.0483 218° Southwest 422 486 32,000  Level Chicago Center
Tue 07:51:04 PM 40.2233 -89.1433 218° Southwest 422 486 32,000  Level Chicago Center
Tue 07:52:06 PM 40.1283 -89.2356 217° Southwest 423 487 32,000  Level Chicago Center
Tue 07:52:48 PM 40.0519 -89.3142 218° Southwest 426 490 32,000  Level Kansas City Center
Tue 07:53:49 PM 39.9572 -89.4100 218° Southwest 428 493 32,000  Level Kansas City Center
Tue 07:54:50 PM 39.8636 -89.5039 218° Southwest 426 490 32,000  Level Kansas City Center
Tue 07:55:51 PM 39.7689 -89.5986 218° Southwest 427 491 32,000  Level Kansas City Center
Tue 07:56:55 PM 39.6761 -89.6900 217° Southwest 425 489 32,000  Level Kansas City Center
Tue 07:57:56 PM 39.5828 -89.7817 217° Southwest 422 486 32,000  Level Kansas City Center
Tue 07:58:56 PM 39.4694 -89.8931 217° Southwest 424 488 32,000  Level Kansas City Center
Tue 08:00:00 PM 39.3736 -89.9867 217° Southwest 430 495 32,000  Level Kansas City Center
Tue 08:01:00 PM 39.2786 -90.0794 217° Southwest 429 494 32,000  Level Kansas City Center
Tue 08:02:02 PM 39.1831 -90.1719 217° Southwest 428 493 32,000  Level Kansas City Center
Tue 08:03:05 PM 39.0858 -90.2661 217° Southwest 435 501 32,000  Level Kansas City Center
Tue 08:04:06 PM 38.9894 -90.3594 217° Southwest 437 503 32,000  Level Kansas City Center
Tue 08:05:10 PM 38.8875 -90.4592 217° Southwest 436 502 32,000  Level Kansas City Center
Tue 08:06:11 PM 38.7736 -90.5803 220° Southwest 438 504 32,000  Level Kansas City Center
Tue 08:07:11 PM 38.6825 -90.6831 221° Southwest 432 497 32,000  Level Kansas City Center
Tue 08:08:15 PM 38.6053 -90.7761 223° Southwest 432 497 32,000  Level Kansas City Center
Tue 08:09:16 PM 38.5172 -90.8767 222° Southwest 428 493 32,000  Level Kansas City Center
Tue 08:10:17 PM 38.4103 -90.9997 222° Southwest 432 497 32,000  Level Kansas City Center
Tue 08:11:20 PM 38.3217 -91.1008 222° Southwest 430 495 32,000  Level Kansas City Center
Tue 08:12:21 PM 38.2308 -91.2022 221° Southwest 434 499 32,000  Level Kansas City Center
Tue 08:13:22 PM 38.1447 -91.3000 222° Southwest 431 496 32,000  Level Kansas City Center
Tue 08:14:24 PM 38.0364 -91.4219 222° Southwest 430 495 32,000  Level Kansas City Center
Tue 08:15:27 PM 37.9461 -91.5242 222° Southwest 430 495 32,000  Level Kansas City Center
Tue 08:16:29 PM 37.8569 -91.6250 222° Southwest 428 493 32,000  Level Kansas City Center
Tue 08:17:30 PM 37.7681 -91.7242 221° Southwest 425 489 32,000  Level Kansas City Center
Tue 08:18:31 PM 37.6781 -91.8244 221° Southwest 426 490 32,000  Level Kansas City Center
Tue 08:19:34 PM 37.5886 -91.9247 222° Southwest 426 490 32,000  Level Kansas City Center
Tue 08:20:35 PM 37.4983 -92.0256 222° Southwest 428 493 32,000  Level Kansas City Center
Tue 08:21:39 PM 37.4103 -92.1236 222° Southwest 423 487 32,000  Level Kansas City Center
Tue 08:22:40 PM 37.3225 -92.2192 221° Southwest 417 480 32,000  Level Kansas City Center
Tue 08:23:41 PM 37.2342 -92.3169 221° Southwest 419 482 32,000  Level Kansas City Center
Tue 08:24:44 PM 37.1269 -92.4339 221° Southwest 422 486 32,000  Level Kansas City Center
Tue 08:25:45 PM 37.0386 -92.5303 221° Southwest 420 483 32,000  Level Kansas City Center
Tue 08:26:47 PM 36.9500 -92.6258 221° Southwest 419 482 32,000  Level Kansas City Center
Tue 08:27:47 PM 36.8611 -92.7228 221° Southwest 420 483 32,000  Level Kansas City Center
Tue 08:28:49 PM 36.7711 -92.8203 221° Southwest 424 488 32,000  Level Kansas City Center
Tue 08:29:53 PM 36.6803 -92.9167 220° Southwest 426 490 32,000  Level Kansas City Center
Tue 08:30:53 PM 36.5925 -93.0111 221° Southwest 425 489 32,000  Level Kansas City Center
Tue 08:31:57 PM 36.5011 -93.1075 220° Southwest 428 493 32,000  Level Kansas City Center
Tue 08:33:08 PM 36.3711 -93.2461 221° Southwest 435 501 32,000  Level Memphis Center
Tue 08:34:08 PM 36.2794 -93.3408 220° Southwest 435 501 32,000  Level Memphis Center
Tue 08:35:08 PM 36.1894 -93.4378 221° Southwest 435 501 32,000  Level Memphis Center
Tue 08:36:08 PM 36.0994 -93.5319 220° Southwest 435 501 32,000  Level Memphis Center
Tue 08:37:08 PM 36.0094 -93.6261 220° Southwest 435 501 32,000  Level Memphis Center
Tue 08:38:08 PM 35.9172 -93.7225 220° Southwest 435 501 32,000  Level Memphis Center
Tue 08:39:08 PM 35.8292 -93.8161 221° Southwest 435 501 32,000  Level Memphis Center
Tue 08:40:08 PM 35.7369 -93.9094 219° Southwest 435 501 32,000  Level Memphis Center
Tue 08:41:08 PM 35.6444 -94.0075 221° Southwest 440 506 32,000  Level Memphis Center
Tue 08:42:08 PM 35.5519 -94.1006 219° Southwest 435 501 32,000  Level Memphis Center
Tue 08:43:08 PM 35.4617 -94.1933 220° Southwest 435 501 32,000  Level Memphis Center
Tue 08:44:08 PM 35.3692 -94.2833 218° Southwest 435 501 32,000  Level Memphis Center
Tue 08:45:08 PM 35.2664 -94.3625 212° Southwest 440 506 32,000  Level Memphis Center
Tue 08:46:49 PM 35.1072 -94.4850 212° Southwest 431 496 32,000  Level Fort Worth Center
Tue 08:47:49 PM 35.0047 -94.5644 212° Southwest 431 496 32,000  Level Fort Worth Center
Tue 08:48:49 PM 34.9022 -94.6414 212° Southwest 431 496 32,000  Level Fort Worth Center
Tue 08:49:49 PM 34.7936 -94.7308 214° Southwest 431 496 32,000  Level Fort Worth Center
Tue 08:50:49 PM 34.6889 -94.8072 211° Southwest 431 496 32,000  Level Fort Worth Center
Tue 08:51:49 PM 34.5861 -94.8861 212° Southwest 431 496 32,000  Level Fort Worth Center
Tue 08:52:49 PM 34.4853 -94.9622 212° Southwest 431 496 32,000  Level Fort Worth Center
Tue 08:53:49 PM 34.3825 -95.0356 210° Southwest 431 496 32,000  Level Fort Worth Center
Tue 08:54:49 PM 34.2794 -95.1114 211° Southwest 431 496 32,000  Level Fort Worth Center
Tue 08:55:49 PM 34.1678 -95.1619 201° Southwest 431 496 32,000  Level Fort Worth Center
Tue 08:56:49 PM 34.0539 -95.2100 199° South 431 496 32,000  Level Fort Worth Center
Tue 08:57:49 PM 33.9508 -95.2828 210° Southwest 431 496 32,000  Level Fort Worth Center
Tue 08:58:49 PM 33.8478 -95.3628 213° Southwest 431 496 32,000  Level Fort Worth Center
Tue 08:59:49 PM 33.7467 -95.4400 212° Southwest 441 507 32,000  Level Fort Worth Center
Tue 09:00:50 PM 33.6456 -95.5147 212° Southwest 441 507 32,000  Level Fort Worth Center
Tue 09:01:49 PM 33.5653 -95.5786 214° Southwest 441 507 32,000  Level Fort Worth Center
Tue 09:02:50 PM 33.4453 -95.6658 211° Southwest 436 502 32,000  Level Fort Worth Center
Tue 09:03:49 PM 33.3422 -95.7475 214° Southwest 436 502 32,000  Level Fort Worth Center
Tue 09:04:49 PM 33.2367 -95.8214 210° Southwest 436 502 32,000  Level Fort Worth Center
Tue 09:05:49 PM 33.1394 -95.8975 213° Southwest 436 502 32,000  Level Fort Worth Center
Tue 09:06:50 PM 33.0361 -95.9786 213° Southwest 431 496 32,000  Level Fort Worth Center
Tue 09:07:50 PM 32.9325 -96.0547 212° Southwest 436 502 32,000  Level Fort Worth Center
Tue 09:08:49 PM 32.8289 -96.1303 212° Southwest 436 502 32,000  Level Fort Worth Center
Tue 09:09:49 PM 32.7275 -96.2058 212° Southwest 436 502 32,000  Level Fort Worth Center
Tue 09:10:49 PM 32.6236 -96.2836 212° Southwest 436 502 32,000  Level Fort Worth Center
Tue 09:11:49 PM 32.5200 -96.3614 212° Southwest 436 502 32,000  Level Fort Worth Center
Tue 09:12:49 PM 32.4142 -96.4364 211° Southwest 436 502 32,000  Level Fort Worth Center
Tue 09:13:49 PM 32.3125 -96.5136 213° Southwest 441 507 32,000  Level Fort Worth Center
Tue 09:14:50 PM 32.2086 -96.5883 211° Southwest 441 507 32,000  Level Fort Worth Center
Tue 09:15:49 PM 32.1067 -96.6653 213° Southwest 441 507 32,000  Level Fort Worth Center
Tue 09:16:49 PM 32.0028 -96.7422 212° Southwest 441 507 32,000 -350 Level Fort Worth Center
Tue 09:17:49 PM 31.9008 -96.8114 210° Southwest 435 501 31,300 -873 Descending Fort Worth Center
Tue 09:18:39 PM 31.8267 -96.8528 205° Southwest 435 501 30,400 -1,297 Descending Houston Center
Tue 09:19:40 PM 31.7125 -96.9158 205° Southwest 445 512 28,900 -1,463 Descending Houston Center
Tue 09:20:42 PM 31.5953 -96.9856 207° Southwest 456 525 27,400 -1,902 Descending Houston Center
Tue 09:21:43 PM 31.4625 -97.0628 206° Southwest 459 528 25,000 -2,537 Descending Houston Center
Tue 09:22:45 PM 31.3517 -97.1267 206° Southwest 444 511 22,200 -2,390 Descending Houston Center
Tue 09:23:46 PM 31.2433 -97.1889 206° Southwest 433 498 20,100 -2,146 Descending Houston Center
Tue 09:24:48 PM 31.1386 -97.2358 201° Southwest 404 465 17,800 -2,098 Descending Houston Center
Tue 09:25:49 PM 31.0369 -97.2756 199° South 386 444 15,800 -1,805 Descending Houston Center
Tue 09:26:51 PM 30.9375 -97.3142 198° South 378 435 14,100 -1,366 Descending Houston Center
Tue 09:27:52 PM 30.8339 -97.3536 198° South 356 410 13,000 -1,024 Descending Houston Center
Tue 09:28:54 PM 30.7481 -97.3894 200° South 331 381 12,000 -1,268 Descending Houston Center
Tue 09:29:55 PM 30.6814 -97.4422 214° Southwest 294 338 10,400 -1,820 Descending Houston Center
Tue 09:30:56 PM 30.6161 -97.4950 215° Southwest 284 327 8,300 -2,049 Descending Houston Center
Tue 09:31:58 PM 30.5550 -97.5433 214° Southwest 269 310 6,200 -1,805 Descending Houston Center
Tue 09:32:59 PM 30.4933 -97.5897 213° Southwest 262 302 4,600 -1,463 Descending Houston Center
Tue 09:34:01 PM 30.4336 -97.6342 213° Southwest 257 296 3,200 -1,024 Descending Houston Center
Tue 09:35:02 PM 30.3808 -97.6750 214° Southwest 238 274 2,500 -689 Descending Houston Center

Login

Don't have an account? Register now (free) for customized features, flight alerts, and more!